sensor_id;sensor_type;location;lat;lon;timestamp;pressure;altitude;pressure_sealevel;temperature;humidity
6680;BME280;3376;42.664;23.346;2023-02-13T00:01:18;96223.84;;;0.95;100.00
6680;BME280;3376;42.664;23.346;2023-02-13T00:03:44;96210.31;;;0.93;100.00
6680;BME280;3376;42.664;23.346;2023-02-13T00:06:11;96234.63;;;1.00;100.00
6680;BME280;3376;42.664;23.346;2023-02-13T00:08:38;96234.63;;;1.00;100.00
6680;BME280;3376;42.664;23.346;2023-02-13T00:11:06;96209.28;;;0.80;100.00
6680;BME280;3376;42.664;23.346;2023-02-13T00:13:33;96239.56;;;1.03;100.00
6680;BME280;3376;42.664;23.346;2023-02-13T00:16:02;96233.03;;;0.98;100.00
6680;BME280;3376;42.664;23.346;2023-02-13T00:18:32;96228.63;;;1.01;100.00
6680;BME280;3376;42.664;23.346;2023-02-13T00:21:00;96224.94;;;0.90;100.00
6680;BME280;3376;42.664;23.346;2023-02-13T00:23:29;96243.16;;;0.99;100.00
6680;BME280;3376;42.664;23.346;2023-02-13T00:25:56;96244.53;;;1.06;100.00
6680;BME280;3376;42.664;23.346;2023-02-13T00:28:25;96237.44;;;1.11;100.00
6680;BME280;3376;42.664;23.346;2023-02-13T00:30:52;96239.28;;;1.09;100.00
6680;BME280;3376;42.664;23.346;2023-02-13T00:33:19;96248.41;;;1.13;100.00
6680;BME280;3376;42.664;23.346;2023-02-13T00:35:45;96240.75;;;1.13;100.00
6680;BME280;3376;42.664;23.346;2023-02-13T00:38:12;96247.97;;;1.23;100.00
6680;BME280;3376;42.664;23.346;2023-02-13T00:40:39;96235.97;;;1.07;100.00
6680;BME280;3376;42.664;23.346;2023-02-13T00:43:06;96241.06;;;1.25;100.00
6680;BME280;3376;42.664;23.346;2023-02-13T00:45:34;96250.34;;;1.26;100.00
6680;BME280;3376;42.664;23.346;2023-02-13T00:48:01;96244.81;;;1.17;100.00
6680;BME280;3376;42.664;23.346;2023-02-13T00:50:27;96252.63;;;1.14;100.00
6680;BME280;3376;42.664;23.346;2023-02-13T00:52:54;96245.44;;;1.05;100.00
6680;BME280;3376;42.664;23.346;2023-02-13T00:55:21;96118.84;;;0.19;100.00
6680;BME280;3376;42.664;23.346;2023-02-13T00:57:47;96252.16;;;1.06;100.00
6680;BME280;3376;42.664;23.346;2023-02-13T01:00:15;96259.63;;;1.11;100.00
6680;BME280;3376;42.664;23.346;2023-02-13T01:02:43;96255.41;;;1.10;100.00
6680;BME280;3376;42.664;23.346;2023-02-13T01:05:10;96246.94;;;1.09;100.00
6680;BME280;3376;42.664;23.346;2023-02-13T01:07:37;96255.94;;;1.16;100.00
6680;BME280;3376;42.664;23.346;2023-02-13T01:10:04;96261.31;;;1.28;100.00
6680;BME280;3376;42.664;23.346;2023-02-13T01:12:31;96260.56;;;1.26;100.00
6680;BME280;3376;42.664;23.346;2023-02-13T01:14:58;96259.34;;;1.33;100.00
6680;BME280;3376;42.664;23.346;2023-02-13T01:17:25;96254.25;;;1.33;100.00
6680;BME280;3376;42.664;23.346;2023-02-13T01:19:53;96256.03;;;1.31;100.00
6680;BME280;3376;42.664;23.346;2023-02-13T01:22:20;96259.06;;;1.39;100.00
6680;BME280;3376;42.664;23.346;2023-02-13T01:24:47;96257.88;;;1.29;100.00
6680;BME280;3376;42.664;23.346;2023-02-13T01:27:13;96256.66;;;1.18;100.00
6680;BME280;3376;42.664;23.346;2023-02-13T01:29:40;96107.16;;;0.32;100.00
6680;BME280;3376;42.664;23.346;2023-02-13T01:32:07;96263.63;;;1.32;100.00
6680;BME280;3376;42.664;23.346;2023-02-13T01:34:34;96257.03;;;1.28;100.00
6680;BME280;3376;42.664;23.346;2023-02-13T01:37:02;96263.34;;;1.38;100.00
6680;BME280;3376;42.664;23.346;2023-02-13T01:39:29;96262.31;;;1.58;100.00
6680;BME280;3376;42.664;23.346;2023-02-13T01:41:55;96270.03;;;1.56;100.00
6680;BME280;3376;42.664;23.346;2023-02-13T01:44:48;96265.94;;;1.54;100.00
6680;BME280;3376;42.664;23.346;2023-02-13T01:47:19;96263.38;;;1.54;100.00
6680;BME280;3376;42.664;23.346;2023-02-13T01:49:48;96235.91;;;1.42;100.00
6680;BME280;3376;42.664;23.346;2023-02-13T01:52:18;96267.09;;;1.64;100.00
6680;BME280;3376;42.664;23.346;2023-02-13T01:54:45;96264.47;;;1.65;100.00
6680;BME280;3376;42.664;23.346;2023-02-13T01:57:14;96251.63;;;1.67;100.00
6680;BME280;3376;42.664;23.346;2023-02-13T01:59:46;96253.50;;;1.63;100.00
6680;BME280;3376;42.664;23.346;2023-02-13T02:02:14;96272.06;;;1.67;100.00
6680;BME280;3376;42.664;23.346;2023-02-13T02:04:43;96265.69;;;1.58;100.00
6680;BME280;3376;42.664;23.346;2023-02-13T02:07:13;96101.75;;;0.55;100.00
6680;BME280;3376;42.664;23.346;2023-02-13T02:09:44;96275.91;;;1.58;100.00
6680;BME280;3376;42.664;23.346;2023-02-13T02:12:19;96256.19;;;1.45;100.00
6680;BME280;3376;42.664;23.346;2023-02-13T02:14:48;96264.59;;;1.47;100.00
6680;BME280;3376;42.664;23.346;2023-02-13T02:17:15;96262.88;;;1.47;100.00
6680;BME280;3376;42.664;23.346;2023-02-13T02:19:47;96263.53;;;1.51;100.00
6680;BME280;3376;42.664;23.346;2023-02-13T02:22:31;96259.91;;;1.55;100.00
6680;BME280;3376;42.664;23.346;2023-02-13T02:25:21;96269.00;;;1.60;100.00
6680;BME280;3376;42.664;23.346;2023-02-13T02:28:30;96267.97;;;1.47;100.00
6680;BME280;3376;42.664;23.346;2023-02-13T02:34:20;96268.66;;;1.51;100.00
6680;BME280;3376;42.664;23.346;2023-02-13T02:37:02;96265.84;;;1.55;100.00
6680;BME280;3376;42.664;23.346;2023-02-13T02:39:38;96263.53;;;1.51;100.00
6680;BME280;3376;42.664;23.346;2023-02-13T02:42:16;96281.84;;;1.59;100.00
6680;BME280;3376;42.664;23.346;2023-02-13T02:44:48;96282.94;;;1.70;100.00
6680;BME280;3376;42.664;23.346;2023-02-13T02:47:22;96281.03;;;1.74;100.00
6680;BME280;3376;42.664;23.346;2023-02-13T02:50:33;96286.00;;;1.77;100.00
6680;BME280;3376;42.664;23.346;2023-02-13T02:53:08;96286.69;;;1.63;100.00
6680;BME280;3376;42.664;23.346;2023-02-13T02:55:42;96290.47;;;1.56;100.00
6680;BME280;3376;42.664;23.346;2023-02-13T02:58:18;96297.09;;;1.60;100.00
6680;BME280;3376;42.664;23.346;2023-02-13T03:01:06;96299.81;;;1.57;100.00
6680;BME280;3376;42.664;23.346;2023-02-13T03:03:54;96302.53;;;1.54;100.00
6680;BME280;3376;42.664;23.346;2023-02-13T03:06:46;96285.09;;;1.45;100.00
6680;BME280;3376;42.664;23.346;2023-02-13T03:09:18;96289.00;;;1.52;100.00
6680;BME280;3376;42.664;23.346;2023-02-13T03:12:03;96292.97;;;1.58;100.00
6680;BME280;3376;42.664;23.346;2023-02-13T03:14:48;96295.03;;;1.67;100.00
6680;BME280;3376;42.664;23.346;2023-02-13T03:17:17;96292.06;;;1.59;100.00
6680;BME280;3376;42.664;23.346;2023-02-13T03:20:19;96298.50;;;1.66;100.00
6680;BME280;3376;42.664;23.346;2023-02-13T03:23:23;96299.47;;;1.63;100.00
6680;BME280;3376;42.664;23.346;2023-02-13T03:26:06;96297.59;;;1.67;100.00
6680;BME280;3376;42.664;23.346;2023-02-13T03:28:40;96285.00;;;1.64;100.00
6680;BME280;3376;42.664;23.346;2023-02-13T03:31:48;96295.63;;;1.72;100.00
6680;BME280;3376;42.664;23.346;2023-02-13T03:34:20;96301.81;;;1.68;100.00
6680;BME280;3376;42.664;23.346;2023-02-13T03:36:54;96288.88;;;1.71;100.00
6680;BME280;3376;42.664;23.346;2023-02-13T03:39:48;96296.06;;;1.80;100.00
6680;BME280;3376;42.664;23.346;2023-02-13T03:42:29;96291.09;;;1.77;100.00
6680;BME280;3376;42.664;23.346;2023-02-13T03:44:59;96287.50;;;1.81;100.00
6680;BME280;3376;42.664;23.346;2023-02-13T03:47:57;96143.78;;;0.81;100.00
6680;BME280;3376;42.664;23.346;2023-02-13T03:50:47;96288.97;;;1.69;100.00
6680;BME280;3376;42.664;23.346;2023-02-13T03:53:13;96302.06;;;1.79;100.00
6680;BME280;3376;42.664;23.346;2023-02-13T03:55:45;96306.75;;;1.71;100.00
6680;BME280;3376;42.664;23.346;2023-02-13T03:58:34;96286.41;;;1.69;100.00
6680;BME280;3376;42.664;23.346;2023-02-13T04:01:21;96268.19;;;1.43;100.00
6680;BME280;3376;42.664;23.346;2023-02-13T04:03:55;96294.53;;;1.60;100.00
6680;BME280;3376;42.664;23.346;2023-02-13T04:06:28;96273.22;;;1.44;100.00
6680;BME280;3376;42.664;23.346;2023-02-13T04:08:56;96293.69;;;1.60;100.00
6680;BME280;3376;42.664;23.346;2023-02-13T04:11:27;96286.13;;;1.58;100.00
6680;BME280;3376;42.664;23.346;2023-02-13T04:13:56;96297.59;;;1.67;100.00
6680;BME280;3376;42.664;23.346;2023-02-13T04:16:32;96305.91;;;1.70;100.00
6680;BME280;3376;42.664;23.346;2023-02-13T04:19:00;96284.16;;;1.63;100.00
6680;BME280;3376;42.664;23.346;2023-02-13T04:21:31;96289.03;;;1.68;100.00
6680;BME280;3376;42.664;23.346;2023-02-13T04:23:59;96310.94;;;1.72;100.00
6680;BME280;3376;42.664;23.346;2023-02-13T04:26:32;96305.88;;;1.87;100.00
6680;BME280;3376;42.664;23.346;2023-02-13T04:28:59;96307.50;;;1.73;100.00
6680;BME280;3376;42.664;23.346;2023-02-13T04:31:26;96275.22;;;1.55;100.00
6680;BME280;3376;42.664;23.346;2023-02-13T04:33:53;96309.56;;;1.82;100.00
6680;BME280;3376;42.664;23.346;2023-02-13T04:36:19;96301.19;;;1.80;100.00
6680;BME280;3376;42.664;23.346;2023-02-13T04:38:46;96289.63;;;1.73;100.00
6680;BME280;3376;42.664;23.346;2023-02-13T04:41:13;96297.53;;;1.84;100.00
6680;BME280;3376;42.664;23.346;2023-02-13T04:43:41;96270.25;;;1.69;100.00
6680;BME280;3376;42.664;23.346;2023-02-13T04:46:08;96294.03;;;1.86;100.00
6680;BME280;3376;42.664;23.346;2023-02-13T04:48:35;96294.09;;;1.85;100.00
6680;BME280;3376;42.664;23.346;2023-02-13T04:51:02;96267.69;;;1.69;100.00
6680;BME280;3376;42.664;23.346;2023-02-13T04:53:28;96305.00;;;1.88;100.00
6680;BME280;3376;42.664;23.346;2023-02-13T04:55:55;96309.09;;;1.91;100.00
6680;BME280;3376;42.664;23.346;2023-02-13T04:58:22;96321.13;;;1.89;100.00
6680;BME280;3376;42.664;23.346;2023-02-13T05:00:50;96315.53;;;1.98;100.00
6680;BME280;3376;42.664;23.346;2023-02-13T05:03:17;96319.03;;;1.97;100.00
6680;BME280;3376;42.664;23.346;2023-02-13T05:05:43;96305.53;;;1.78;100.00
6680;BME280;3376;42.664;23.346;2023-02-13T05:08:10;96324.09;;;1.81;100.00
6680;BME280;3376;42.664;23.346;2023-02-13T05:10:37;96215.16;;;1.15;100.00
6680;BME280;3376;42.664;23.346;2023-02-13T05:13:04;96331.47;;;1.70;100.00
6680;BME280;3376;42.664;23.346;2023-02-13T05:15:31;96321.75;;;1.77;100.00
6680;BME280;3376;42.664;23.346;2023-02-13T05:17:59;96332.19;;;1.89;100.00
6680;BME280;3376;42.664;23.346;2023-02-13T05:20:26;96316.94;;;1.88;100.00
6680;BME280;3376;42.664;23.346;2023-02-13T05:22:53;96330.88;;;1.98;100.00
6680;BME280;3376;42.664;23.346;2023-02-13T05:25:39;96331.63;;;2.00;100.00
6680;BME280;3376;42.664;23.346;2023-02-13T05:28:07;96334.97;;;1.85;100.00
6680;BME280;3376;42.664;23.346;2023-02-13T05:30:54;96331.97;;;1.77;100.00
6680;BME280;3376;42.664;23.346;2023-02-13T05:33:22;96348.72;;;1.82;100.00
6680;BME280;3376;42.664;23.346;2023-02-13T05:35:48;96301.66;;;1.71;100.00
6680;BME280;3376;42.664;23.346;2023-02-13T05:38:15;96337.63;;;1.99;100.00
6680;BME280;3376;42.664;23.346;2023-02-13T05:40:42;96338.53;;;1.98;100.00
6680;BME280;3376;42.664;23.346;2023-02-13T05:43:08;96345.19;;;1.85;100.00
6680;BME280;3376;42.664;23.346;2023-02-13T05:45:35;96347.16;;;1.80;100.00
6680;BME280;3376;42.664;23.346;2023-02-13T05:48:02;96353.69;;;1.68;100.00
6680;BME280;3376;42.664;23.346;2023-02-13T05:50:30;96347.78;;;1.68;100.00
6680;BME280;3376;42.664;23.346;2023-02-13T05:52:57;96333.88;;;1.56;100.00
6680;BME280;3376;42.664;23.346;2023-02-13T05:55:24;96349.25;;;1.72;100.00
6680;BME280;3376;42.664;23.346;2023-02-13T05:57:54;96343.13;;;1.59;100.00
6680;BME280;3376;42.664;23.346;2023-02-13T06:00:22;96342.22;;;1.60;100.00
6680;BME280;3376;42.664;23.346;2023-02-13T06:02:48;96360.31;;;1.72;100.00
6680;BME280;3376;42.664;23.346;2023-02-13T06:05:15;96327.44;;;1.49;100.00
6680;BME280;3376;42.664;23.346;2023-02-13T06:07:43;96365.06;;;1.63;100.00
6680;BME280;3376;42.664;23.346;2023-02-13T06:10:10;96365.06;;;1.63;100.00
6680;BME280;3376;42.664;23.346;2023-02-13T06:12:37;96367.75;;;1.77;100.00
6680;BME280;3376;42.664;23.346;2023-02-13T06:15:05;96371.63;;;1.84;100.00
6680;BME280;3376;42.664;23.346;2023-02-13T06:17:32;96369.69;;;1.72;100.00
6680;BME280;3376;42.664;23.346;2023-02-13T06:19:59;96377.00;;;1.79;100.00
6680;BME280;3376;42.664;23.346;2023-02-13T06:22:25;96372.72;;;1.80;100.00
6680;BME280;3376;42.664;23.346;2023-02-13T06:24:53;96373.66;;;1.94;100.00
6680;BME280;3376;42.664;23.346;2023-02-13T06:27:20;96378.84;;;1.93;100.00
6680;BME280;3376;42.664;23.346;2023-02-13T06:29:47;96378.22;;;2.05;100.00
6680;BME280;3376;42.664;23.346;2023-02-13T06:32:14;96375.75;;;2.03;100.00
6680;BME280;3376;42.664;23.346;2023-02-13T06:34:40;96381.16;;;1.97;100.00
6680;BME280;3376;42.664;23.346;2023-02-13T06:37:07;96383.34;;;2.05;100.00
6680;BME280;3376;42.664;23.346;2023-02-13T06:39:34;96381.41;;;1.93;100.00
6680;BME280;3376;42.664;23.346;2023-02-13T06:42:02;96271.22;;;1.34;100.00
6680;BME280;3376;42.664;23.346;2023-02-13T06:44:29;96382.91;;;1.97;100.00
6680;BME280;3376;42.664;23.346;2023-02-13T06:46:55;96366.97;;;1.92;100.00
6680;BME280;3376;42.664;23.346;2023-02-13T06:49:22;96369.88;;;2.01;100.00
6680;BME280;3376;42.664;23.346;2023-02-13T06:51:49;96375.03;;;2.17;100.00
6680;BME280;3376;42.664;23.346;2023-02-13T06:54:16;96382.22;;;2.26;100.00
6680;BME280;3376;42.664;23.346;2023-02-13T06:56:42;96388.66;;;2.17;100.00
6680;BME280;3376;42.664;23.346;2023-02-13T06:59:11;96387.00;;;2.32;100.00
6680;BME280;3376;42.664;23.346;2023-02-13T07:01:37;96383.81;;;2.44;100.00
6680;BME280;3376;42.664;23.346;2023-02-13T07:04:04;96385.22;;;2.50;100.00
6680;BME280;3376;42.664;23.346;2023-02-13T07:06:31;96378.78;;;2.58;100.00
6680;BME280;3376;42.664;23.346;2023-02-13T07:08:58;96356.03;;;2.54;100.00
6680;BME280;3376;42.664;23.346;2023-02-13T07:11:26;96343.31;;;2.36;100.00
6680;BME280;3376;42.664;23.346;2023-02-13T07:13:52;96351.63;;;2.40;100.00
6680;BME280;3376;42.664;23.346;2023-02-13T07:16:21;96380.53;;;2.73;100.00
6680;BME280;3376;42.664;23.346;2023-02-13T07:18:47;96359.81;;;2.62;100.00
6680;BME280;3376;42.664;23.346;2023-02-13T07:21:14;96378.38;;;2.81;100.00
6680;BME280;3376;42.664;23.346;2023-02-13T07:23:41;96387.13;;;2.77;100.00
6680;BME280;3376;42.664;23.346;2023-02-13T07:26:08;96389.50;;;2.96;100.00
6680;BME280;3376;42.664;23.346;2023-02-13T07:28:35;96391.81;;;3.00;100.00
6680;BME280;3376;42.664;23.346;2023-02-13T07:31:03;96386.28;;;2.92;100.00
6680;BME280;3376;42.664;23.346;2023-02-13T07:33:31;96383.16;;;3.03;100.00
6680;BME280;3376;42.664;23.346;2023-02-13T07:35:58;96379.09;;;3.14;100.00
6680;BME280;3376;42.664;23.346;2023-02-13T07:38:28;96396.69;;;3.20;100.00
6680;BME280;3376;42.664;23.346;2023-02-13T07:40:57;96377.78;;;3.07;100.00
6680;BME280;3376;42.664;23.346;2023-02-13T07:43:24;96393.19;;;3.21;100.00
6680;BME280;3376;42.664;23.346;2023-02-13T07:45:51;96389.38;;;3.28;100.00
6680;BME280;3376;42.664;23.346;2023-02-13T07:48:21;96391.81;;;3.45;100.00
6680;BME280;3376;42.664;23.346;2023-02-13T07:50:49;96369.63;;;3.30;100.00
6680;BME280;3376;42.664;23.346;2023-02-13T07:53:16;96392.75;;;3.58;100.00
6680;BME280;3376;42.664;23.346;2023-02-13T07:55:42;96368.81;;;3.59;98.66
6680;BME280;3376;42.664;23.346;2023-02-13T07:58:09;96388.69;;;3.70;100.00
6680;BME280;3376;42.664;23.346;2023-02-13T08:00:36;96390.69;;;3.65;100.00
6680;BME280;3376;42.664;23.346;2023-02-13T08:03:03;96384.84;;;3.63;100.00
6680;BME280;3376;42.664;23.346;2023-02-13T08:05:31;96374.53;;;3.49;98.07
6680;BME280;3376;42.664;23.346;2023-02-13T08:08:00;96393.59;;;3.59;98.93
6680;BME280;3376;42.664;23.346;2023-02-13T08:10:27;96388.38;;;3.60;100.00
6680;BME280;3376;42.664;23.346;2023-02-13T08:13:12;96391.97;;;3.72;99.94
6680;BME280;3376;42.664;23.346;2023-02-13T08:15:39;96389.69;;;3.68;99.89
6680;BME280;3376;42.664;23.346;2023-02-13T08:18:06;96383.63;;;3.69;99.42
6680;BME280;3376;42.664;23.346;2023-02-13T08:20:32;96387.72;;;3.57;99.37
6680;BME280;3376;42.664;23.346;2023-02-13T08:23:06;96387.72;;;3.57;100.00
6680;BME280;3376;42.664;23.346;2023-02-13T08:25:33;96383.06;;;3.63;100.00
6680;BME280;3376;42.664;23.346;2023-02-13T08:28:00;96367.97;;;3.59;100.00
6680;BME280;3376;42.664;23.346;2023-02-13T08:30:27;96289.41;;;3.00;100.00
6680;BME280;3376;42.664;23.346;2023-02-13T08:32:54;96387.59;;;3.74;100.00
6680;BME280;3376;42.664;23.346;2023-02-13T08:35:22;96388.41;;;3.75;99.35
6680;BME280;3376;42.664;23.346;2023-02-13T08:37:51;96390.81;;;3.78;99.92
6680;BME280;3376;42.664;23.346;2023-02-13T08:40:19;96338.53;;;3.36;98.75
6680;BME280;3376;42.664;23.346;2023-02-13T08:42:46;96386.34;;;3.51;99.06
6680;BME280;3376;42.664;23.346;2023-02-13T08:45:13;96382.66;;;3.41;99.76
6680;BME280;3376;42.664;23.346;2023-02-13T08:47:40;96398.34;;;3.51;99.39
6680;BME280;3376;42.664;23.346;2023-02-13T08:50:07;96388.56;;;3.57;100.00
6680;BME280;3376;42.664;23.346;2023-02-13T08:52:34;96369.94;;;3.40;99.56
6680;BME280;3376;42.664;23.346;2023-02-13T08:55:01;96394.03;;;3.51;100.00
6680;BME280;3376;42.664;23.346;2023-02-13T08:57:30;96395.00;;;3.65;99.53
6680;BME280;3376;42.664;23.346;2023-02-13T08:59:57;96388.28;;;3.62;98.56
6680;BME280;3376;42.664;23.346;2023-02-13T09:02:24;96366.81;;;3.35;100.00
6680;BME280;3376;42.664;23.346;2023-02-13T09:04:51;96386.75;;;3.59;99.13
6680;BME280;3376;42.664;23.346;2023-02-13T09:07:17;96382.13;;;3.50;100.00
6680;BME280;3376;42.664;23.346;2023-02-13T09:09:44;96394.69;;;3.55;99.52
6680;BME280;3376;42.664;23.346;2023-02-13T09:12:11;96363.28;;;3.51;99.25
6680;BME280;3376;42.664;23.346;2023-02-13T09:14:39;96390.97;;;3.75;98.79
6680;BME280;3376;42.664;23.346;2023-02-13T09:17:06;96379.47;;;3.82;98.21
6680;BME280;3376;42.664;23.346;2023-02-13T09:19:33;96393.84;;;3.98;99.97
6680;BME280;3376;42.664;23.346;2023-02-13T09:21:59;96389.94;;;4.21;97.68
6680;BME280;3376;42.664;23.346;2023-02-13T09:24:26;96247.63;;;3.43;96.70
6680;BME280;3376;42.664;23.346;2023-02-13T09:26:53;96392.84;;;4.43;95.25
6680;BME280;3376;42.664;23.346;2023-02-13T09:29:21;96387.09;;;4.53;92.80
6680;BME280;3376;42.664;23.346;2023-02-13T09:31:49;96377.66;;;4.40;91.70
6680;BME280;3376;42.664;23.346;2023-02-13T09:34:15;96379.13;;;4.16;93.83
6680;BME280;3376;42.664;23.346;2023-02-13T09:36:42;96381.78;;;4.28;93.25
6680;BME280;3376;42.664;23.346;2023-02-13T09:39:09;96363.56;;;4.73;96.53
6680;BME280;3376;42.664;23.346;2023-02-13T09:41:38;96370.00;;;5.07;92.76
6680;BME280;3376;42.664;23.346;2023-02-13T09:44:12;96367.50;;;5.32;93.68
6680;BME280;3376;42.664;23.346;2023-02-13T09:47:00;96366.25;;;5.64;90.63
6680;BME280;3376;42.664;23.346;2023-02-13T09:49:32;96365.06;;;5.95;88.92
6680;BME280;3376;42.664;23.346;2023-02-13T09:52:00;96370.22;;;6.08;89.77
6680;BME280;3376;42.664;23.346;2023-02-13T09:54:27;96360.41;;;6.38;86.48
6680;BME280;3376;42.664;23.346;2023-02-13T09:56:59;96361.81;;;6.67;84.74
6680;BME280;3376;42.664;23.346;2023-02-13T09:59:38;96359.13;;;7.28;81.73
6680;BME280;3376;42.664;23.346;2023-02-13T10:02:25;96348.63;;;8.45;81.69
6680;BME280;3376;42.664;23.346;2023-02-13T10:05:00;96354.69;;;8.88;74.51
6680;BME280;3376;42.664;23.346;2023-02-13T10:07:36;96344.31;;;8.99;73.91
6680;BME280;3376;42.664;23.346;2023-02-13T10:10:13;96352.38;;;9.16;71.58
6680;BME280;3376;42.664;23.346;2023-02-13T10:12:56;96344.31;;;9.62;70.76
6680;BME280;3376;42.664;23.346;2023-02-13T10:15:31;96347.88;;;10.02;69.02
6680;BME280;3376;42.664;23.346;2023-02-13T10:18:05;96344.13;;;10.36;66.37
6680;BME280;3376;42.664;23.346;2023-02-13T10:20:38;96339.25;;;10.43;64.59
6680;BME280;3376;42.664;23.346;2023-02-13T10:23:17;96328.78;;;11.13;67.08
6680;BME280;3376;42.664;23.346;2023-02-13T10:25:51;96324.72;;;11.39;61.57
6680;BME280;3376;42.664;23.346;2023-02-13T10:28:28;96315.03;;;11.31;60.61
6680;BME280;3376;42.664;23.346;2023-02-13T10:31:01;96309.97;;;11.87;60.24
6680;BME280;3376;42.664;23.346;2023-02-13T10:33:33;96306.59;;;12.87;57.61
6680;BME280;3376;42.664;23.346;2023-02-13T10:36:08;96269.13;;;13.25;54.87
6680;BME280;3376;42.664;23.346;2023-02-13T10:38:43;96293.34;;;13.60;51.79
6680;BME280;3376;42.664;23.346;2023-02-13T10:41:24;96285.38;;;13.62;51.46
6680;BME280;3376;42.664;23.346;2023-02-13T10:44:16;96285.03;;;14.00;52.30
6680;BME280;3376;42.664;23.346;2023-02-13T10:46:55;96158.66;;;13.45;49.48
6680;BME280;3376;42.664;23.346;2023-02-13T10:49:46;96270.41;;;14.33;48.93
6680;BME280;3376;42.664;23.346;2023-02-13T10:52:24;96271.13;;;14.43;48.37
6680;BME280;3376;42.664;23.346;2023-02-13T10:55:08;96268.09;;;14.30;46.76
6680;BME280;3376;42.664;23.346;2023-02-13T10:57:52;96253.94;;;13.81;49.06
6680;BME280;3376;42.664;23.346;2023-02-13T11:00:28;96267.56;;;13.75;48.78
6680;BME280;3376;42.664;23.346;2023-02-13T11:02:58;96264.94;;;13.49;48.22
6680;BME280;3376;42.664;23.346;2023-02-13T11:05:32;96133.59;;;12.83;48.88
6680;BME280;3376;42.664;23.346;2023-02-13T11:07:59;96253.78;;;13.82;47.04
6680;BME280;3376;42.664;23.346;2023-02-13T11:10:26;96257.63;;;13.53;48.68
6680;BME280;3376;42.664;23.346;2023-02-13T11:12:53;96248.41;;;13.58;46.88
6680;BME280;3376;42.664;23.346;2023-02-13T11:15:23;96237.88;;;13.68;46.11
6680;BME280;3376;42.664;23.346;2023-02-13T11:17:52;96239.72;;;13.50;47.05
6680;BME280;3376;42.664;23.346;2023-02-13T11:20:30;96118.84;;;12.91;46.58
6680;BME280;3376;42.664;23.346;2023-02-13T11:23:21;96236.25;;;13.67;46.38
6680;BME280;3376;42.664;23.346;2023-02-13T11:25:56;96229.78;;;13.71;45.08
6680;BME280;3376;42.664;23.346;2023-02-13T11:28:23;96212.06;;;13.49;46.01
6680;BME280;3376;42.664;23.346;2023-02-13T11:30:50;96218.69;;;13.26;46.92
6680;BME280;3376;42.664;23.346;2023-02-13T11:33:21;96214.53;;;13.15;46.81
6680;BME280;3376;42.664;23.346;2023-02-13T11:36:03;96209.34;;;13.15;47.30
6680;BME280;3376;42.664;23.346;2023-02-13T11:38:30;96197.81;;;13.18;45.63
6680;BME280;3376;42.664;23.346;2023-02-13T11:41:04;96199.06;;;13.31;47.20
6680;BME280;3376;42.664;23.346;2023-02-13T11:43:35;96194.38;;;13.86;46.49
6680;BME280;3376;42.664;23.346;2023-02-13T11:46:05;96193.47;;;13.95;44.46
6680;BME280;3376;42.664;23.346;2023-02-13T11:48:32;96184.09;;;14.10;43.60
6680;BME280;3376;42.664;23.346;2023-02-13T11:51:01;96171.88;;;13.85;44.90
6680;BME280;3376;42.664;23.346;2023-02-13T11:53:30;96174.09;;;13.72;45.13
6680;BME280;3376;42.664;23.346;2023-02-13T11:56:04;96167.72;;;13.66;45.84
6680;BME280;3376;42.664;23.346;2023-02-13T11:58:32;96151.50;;;13.47;46.88
6680;BME280;3376;42.664;23.346;2023-02-13T12:01:23;96150.97;;;14.02;45.72
6680;BME280;3376;42.664;23.346;2023-02-13T12:04:01;96146.16;;;13.82;44.12
6680;BME280;3376;42.664;23.346;2023-02-13T12:06:30;96144.59;;;13.97;44.06
6680;BME280;3376;42.664;23.346;2023-02-13T12:09:04;96138.06;;;14.35;43.62
6680;BME280;3376;42.664;23.346;2023-02-13T12:11:37;96140.34;;;14.30;40.37
6680;BME280;3376;42.664;23.346;2023-02-13T12:14:04;96138.91;;;14.35;40.79
6680;BME280;3376;42.664;23.346;2023-02-13T12:16:37;96144.97;;;14.02;41.91
6680;BME280;3376;42.664;23.346;2023-02-13T12:19:10;96133.19;;;13.90;44.00
6680;BME280;3376;42.664;23.346;2023-02-13T12:21:58;96134.03;;;13.98;42.30
6680;BME280;3376;42.664;23.346;2023-02-13T12:24:45;96126.53;;;14.37;42.25
6680;BME280;3376;42.664;23.346;2023-02-13T12:27:18;96123.63;;;14.48;42.09
6680;BME280;3376;42.664;23.346;2023-02-13T12:30:05;96123.19;;;14.69;40.66
6680;BME280;3376;42.664;23.346;2023-02-13T12:32:42;96129.84;;;14.79;39.62
6680;BME280;3376;42.664;23.346;2023-02-13T12:35:29;96129.84;;;14.71;38.26
6680;BME280;3376;42.664;23.346;2023-02-13T12:38:08;96128.34;;;14.03;40.02
6680;BME280;3376;42.664;23.346;2023-02-13T12:40:57;96110.63;;;14.14;40.62
6680;BME280;3376;42.664;23.346;2023-02-13T12:46:24;96105.06;;;14.01;40.53
6680;BME280;3376;42.664;23.346;2023-02-13T12:48:59;96110.25;;;13.93;39.19
6680;BME280;3376;42.664;23.346;2023-02-13T12:51:38;96108.47;;;13.60;39.48
6680;BME280;3376;42.664;23.346;2023-02-13T12:57:22;95995.78;;;12.91;39.34
6680;BME280;3376;42.664;23.346;2023-02-13T13:00:04;96088.81;;;13.40;39.72
6680;BME280;3376;42.664;23.346;2023-02-13T13:02:48;96100.38;;;13.46;40.47
6680;BME280;3376;42.664;23.346;2023-02-13T13:05:26;96098.56;;;13.72;39.01
6680;BME280;3376;42.664;23.346;2023-02-13T13:08:12;96080.91;;;13.58;39.77
6680;BME280;3376;42.664;23.346;2023-02-13T13:11:05;96090.41;;;13.67;40.55
6680;BME280;3376;42.664;23.346;2023-02-13T13:13:46;96093.09;;;13.49;40.20
6680;BME280;3376;42.664;23.346;2023-02-13T13:16:20;96089.13;;;13.71;38.92
6680;BME280;3376;42.664;23.346;2023-02-13T13:18:59;96069.41;;;14.02;38.99
6680;BME280;3376;42.664;23.346;2023-02-13T13:21:34;96083.03;;;13.88;38.95
6680;BME280;3376;42.664;23.346;2023-02-13T13:24:08;96080.13;;;13.57;38.85
6680;BME280;3376;42.664;23.346;2023-02-13T13:26:41;96034.50;;;12.94;41.12
6680;BME280;3376;42.664;23.346;2023-02-13T13:29:13;96062.66;;;13.16;40.41
6680;BME280;3376;42.664;23.346;2023-02-13T13:31:43;96072.34;;;12.88;40.39
6680;BME280;3376;42.664;23.346;2023-02-13T13:34:19;96068.03;;;12.79;41.22
6680;BME280;3376;42.664;23.346;2023-02-13T13:36:50;96058.91;;;13.01;41.82
6680;BME280;3376;42.664;23.346;2023-02-13T13:39:29;95982.19;;;12.71;40.22
6680;BME280;3376;42.664;23.346;2023-02-13T13:42:10;96063.00;;;13.21;40.42
6680;BME280;3376;42.664;23.346;2023-02-13T13:45:07;96064.91;;;12.93;40.92
6680;BME280;3376;42.664;23.346;2023-02-13T13:47:45;96060.81;;;12.91;40.52